This is the latest recevied weather packets stored in our database for station/object SALIDA. If no packets are shown the sender has not sent any weather packets the latest 1 day(s).
| Time | Temp. | Humidity | Pressure | Rain* | Wind** | Luminosity | Snow |
|---|---|---|---|---|---|---|---|
| 1778099483 | 1.67° C | 72% | 1015.4 hPa | 1.78 mm | - | - | - |
| 1778098583 | 1.67° C | 72% | 1015.4 hPa | 2.03 mm | - | - | - |
| 1778097683 | 1.67° C | 74% | 1015.1 hPa | 3.05 mm | - | - | - |
| 1778096783 | 1.11° C | 76% | 1014.8 hPa | 2.79 mm | - | - | - |
| 1778095883 | 1.11° C | 75% | 1014.7 hPa | 2.79 mm | - | - | - |
| 1778094983 | 1.67° C | 75% | 1014.7 hPa | 3.05 mm | - | - | - |
| 1778094083 | 0.56° C | 78% | 1014.6 hPa | 2.54 mm | - | - | - |
| 1778093183 | 0° C | 81% | 1014.3 hPa | 2.79 mm | - | - | - |
| 1778092283 | 0° C | 82% | 1014.5 hPa | 2.54 mm | - | - | - |
| 1778091383 | 0° C | 82% | 1014.9 hPa | 1.78 mm | - | - | - |
| 1778090483 | 0° C | 84% | 1014.7 hPa | 1.27 mm | - | - | - |
| 1778089583 | -0.56° C | 87% | 1014.5 hPa | 0.51 mm | - | - | - |
| 1778087783 | -1.67° C | 90% | 1014.6 hPa | 0.25 mm | - | - | - |
| 1778084183 | -1.67° C | 91% | 1013.1 hPa | 0 mm | - | - | - |
| 1778083283 | -1.67° C | 91% | 1012.5 hPa | 0 mm | - | - | - |
| 1778064423 | 0° C | 90% | 1006.3 hPa | 0 mm | - | - | - |
| 1778061684 | 1.11° C | 83% | 1006 hPa | 0 mm | - | - | - |
| 1778060784 | 1.11° C | 82% | 1005.9 hPa | 0 mm | - | - | - |
| 1778059884 | 1.11° C | 82% | 1005.8 hPa | 0 mm | - | - | - |
| 1778058984 | 1.11° C | 81% | 1005.9 hPa | 0 mm | - | - | - |
| 1778058084 | 1.11° C | 82% | 1005.7 hPa | 0 mm | - | - | - |
| 1778057184 | 1.11° C | 82% | 1005.6 hPa | 0 mm | - | - | - |
| 1778056284 | 1.11° C | 82% | 1005.8 hPa | 0 mm | - | - | - |
| 1778055384 | 1.11° C | 82% | 1005.9 hPa | 0 mm | - | - | - |
| 1778054484 | 1.11° C | 82% | 1006.1 hPa | 0 mm | - | - | - |
* Rain latest hour (hover to see other rain measurements)
** Current wind speed in m/s (hover to see current wind gust speed)